Time;durP1;ratioP1;P1;durP2;ratioP2;P2;SDS_P1;SDS_P2;PMS_P1;PMS_P2;Temp;Humidity;BMP_temperature;BMP_pressure;BME280_temperature;BME280_humidity;BME280_pressure;Samples;Min_cycle;Max_cycle;Signal;HPM_P1;HPM_P2
2024/01/18 00:00:11;;;;;;;0.70;0.70;;;;;;;11.85;100.00;97312.84;5010803;28;20045;-72
2024/01/18 00:02:36;;;;;;;0.80;0.80;;;;;;;11.87;100.00;97325.09;5008784;28;20375;-72
2024/01/18 00:05:01;;;;;;;0.70;0.70;;;;;;;11.70;100.00;97296.31;5010946;28;20054;-72
2024/01/18 00:07:27;;;;;;;0.70;0.70;;;;;;;11.85;100.00;97326.19;5011110;28;20037;-72
2024/01/18 00:09:52;;;;;;;0.70;0.70;;;;;;;11.79;100.00;97322.19;5012261;28;20088;-72
2024/01/18 00:12:18;;;;;;;0.70;0.70;;;;;;;11.80;100.00;97328.34;5011114;28;20025;-72
2024/01/18 00:14:43;;;;;;;0.60;0.60;;;;;;;11.77;100.00;97332.13;5011381;28;20545;-72
2024/01/18 00:17:08;;;;;;;0.70;0.70;;;;;;;11.76;100.00;97317.09;4993141;28;20036;-72
2024/01/18 00:19:34;;;;;;;0.70;0.70;;;;;;;11.76;100.00;97319.75;5011560;28;20022;-72
2024/01/18 00:21:59;;;;;;;0.70;0.70;;;;;;;11.77;100.00;97321.47;5010827;28;20483;-72
2024/01/18 00:24:25;;;;;;;0.70;0.70;;;;;;;11.63;100.00;97296.91;5011517;28;20443;-72
2024/01/18 00:26:50;;;;;;;0.70;0.70;;;;;;;11.80;100.00;97323.03;5010158;28;20040;-72
2024/01/18 00:29:16;;;;;;;0.70;0.70;;;;;;;11.74;100.00;97312.88;4993817;28;20033;-72
2024/01/18 00:31:41;;;;;;;0.60;0.60;;;;;;;11.77;100.00;97324.13;4993352;28;20029;-72
2024/01/18 00:34:07;;;;;;;0.70;0.70;;;;;;;11.81;100.00;97330.91;4999235;28;20080;-72
2024/01/18 00:36:32;;;;;;;0.70;0.70;;;;;;;11.83;100.00;97333.44;4990577;28;20030;-72
2024/01/18 00:38:57;;;;;;;0.70;0.70;;;;;;;11.82;100.00;97332.59;5007806;28;20026;-71
2024/01/18 00:41:30;;;;;;;0.70;0.70;;;;;;;11.80;100.00;97320.38;5006628;28;20026;-71
2024/01/18 00:43:55;;;;;;;0.70;0.70;;;;;;;11.62;100.00;97308.50;5008416;28;20030;-72
2024/01/18 00:46:21;;;;;;;0.68;0.68;;;;;;;11.61;100.00;97299.66;5009247;28;20034;-72
2024/01/18 00:48:46;;;;;;;0.70;0.70;;;;;;;11.78;100.00;97335.63;5009302;28;20033;-71
2024/01/18 00:51:12;;;;;;;0.70;0.70;;;;;;;11.74;100.00;97342.19;5009519;28;20037;-72
2024/01/18 00:53:38;;;;;;;0.63;0.63;;;;;;;11.68;100.00;97345.31;5008948;28;20084;-71
2024/01/18 00:56:08;;;;;;;0.70;0.70;;;;;;;11.70;100.00;97346.03;5008658;28;20381;-71
2024/01/18 00:58:33;;;;;;;0.70;0.70;;;;;;;11.53;100.00;97325.22;5009437;28;20471;-72
2024/01/18 01:00:59;;;;;;;0.80;0.80;;;;;;;11.72;100.00;97354.75;4991795;28;20040;-71
2024/01/18 01:03:24;;;;;;;0.60;0.60;;;;;;;11.54;100.00;97332.22;5010830;28;20041;-71
2024/01/18 01:05:49;;;;;;;0.60;0.60;;;;;;;11.68;100.00;97363.94;4991657;28;20141;-72
2024/01/18 01:08:16;;;;;;;0.68;0.68;;;;;;;11.68;100.00;97366.59;5010861;28;20101;-71
2024/01/18 01:10:41;;;;;;;0.70;0.70;;;;;;;11.68;100.00;97358.63;4992615;28;20026;-71
2024/01/18 01:13:08;;;;;;;0.70;0.70;;;;;;;11.52;100.00;97332.34;5010972;28;20076;-71
2024/01/18 01:15:33;;;;;;;0.70;0.70;;;;;;;11.66;100.00;97364.06;4992185;28;20040;-71
2024/01/18 01:17:59;;;;;;;0.70;0.70;;;;;;;11.65;100.00;97366.84;4995851;28;20021;-71
2024/01/18 01:20:24;;;;;;;0.70;0.70;;;;;;;11.59;100.00;97367.31;5010485;28;20472;-71
2024/01/18 01:22:49;;;;;;;0.70;0.70;;;;;;;11.64;100.00;97375.81;5010823;28;20042;-71
2024/01/18 01:25:15;;;;;;;0.70;0.70;;;;;;;11.67;100.00;97375.56;5008849;28;20105;-71
2024/01/18 01:27:40;;;;;;;0.70;0.70;;;;;;;11.66;100.00;97373.88;5009832;28;20025;-71
2024/01/18 01:30:06;;;;;;;0.73;0.73;;;;;;;11.63;100.00;97379.44;4986884;28;20604;-71
2024/01/18 01:32:33;;;;;;;0.70;0.70;;;;;;;11.47;100.00;97353.16;4990461;28;20034;-71
2024/01/18 01:34:58;;;;;;;0.70;0.70;;;;;;;11.63;100.00;97387.41;4991164;28;20034;-71
2024/01/18 01:37:24;;;;;;;0.73;0.73;;;;;;;11.63;100.00;97390.06;5007180;28;20033;-71
2024/01/18 01:39:49;;;;;;;0.70;0.70;;;;;;;11.62;100.00;97388.38;5009723;28;20034;-71
2024/01/18 01:42:15;;;;;;;0.65;0.65;;;;;;;11.46;100.00;97363.91;5008158;28;20030;-71
2024/01/18 01:44:40;;;;;;;0.70;0.70;;;;;;;11.61;100.00;97395.50;4991074;28;20068;-71
2024/01/18 01:47:06;;;;;;;0.60;0.60;;;;;;;11.59;100.00;97388.59;5007242;28;20430;-71
2024/01/18 01:49:32;;;;;;;0.70;0.70;;;;;;;11.56;100.00;97388.84;5007769;28;20051;-71
2024/01/18 01:51:57;;;;;;;0.60;0.60;;;;;;;11.36;100.00;97362.94;5009109;28;20472;-72
2024/01/18 01:54:29;;;;;;;0.70;0.70;;;;;;;11.49;100.00;97387.63;4989667;28;20025;-71
2024/01/18 01:56:55;;;;;;;0.60;0.60;;;;;;;11.26;100.00;97357.50;4981484;28;20021;-72
2024/01/18 01:59:21;;;;;;;0.70;0.70;;;;;;;11.23;100.00;97362.19;5009441;28;20033;-72
2024/01/18 02:01:47;;;;;;;0.70;0.70;;;;;;;11.19;100.00;97355.41;5009737;28;20029;-70
2024/01/18 02:04:13;;;;;;;0.73;0.73;;;;;;;11.34;100.00;97383.50;5000451;28;20900;-69
2024/01/18 02:06:40;;;;;;;0.70;0.70;;;;;;;11.32;100.00;97378.28;4990133;28;20492;-69
2024/01/18 02:09:06;;;;;;;0.70;0.70;;;;;;;11.33;100.00;97379.16;5005041;28;20112;-69
2024/01/18 02:11:32;;;;;;;0.70;0.70;;;;;;;11.19;100.00;97353.59;4991946;28;20025;-69
2024/01/18 02:13:57;;;;;;;0.70;0.70;;;;;;;11.32;100.00;97374.78;5009028;28;20022;-69
2024/01/18 02:16:23;;;;;;;0.70;0.70;;;;;;;11.27;100.00;97371.63;5009691;28;20543;-69
2024/01/18 02:18:49;;;;;;;0.60;0.60;;;;;;;11.24;100.00;97371.88;5009691;28;20026;-69
2024/01/18 02:21:15;;;;;;;0.70;0.70;;;;;;;11.15;100.00;97361.94;4990819;28;20487;-69
2024/01/18 02:23:50;;;;;;;0.70;0.70;;;;;;;11.27;100.00;97377.81;5009539;28;20041;-69
2024/01/18 02:26:15;;;;;;;0.70;0.70;;;;;;;11.25;100.00;97384.22;4991474;28;20030;-70
2024/01/18 02:28:57;;;;;;;0.60;0.60;;;;;;;11.23;100.00;97381.69;4990698;28;20041;-70
2024/01/18 02:31:23;;;;;;;0.60;0.60;;;;;;;11.20;100.00;97389.03;4988442;28;20030;-69
2024/01/18 02:33:49;;;;;;;0.70;0.70;;;;;;;11.17;100.00;97376.81;4990452;28;20033;-70
2024/01/18 02:36:15;;;;;;;0.70;0.70;;;;;;;10.99;100.00;97358.78;4988789;28;20040;-70
2024/01/18 02:38:41;;;;;;;0.70;0.70;;;;;;;11.14;100.00;97385.03;5007727;28;20025;-69
2024/01/18 02:41:07;;;;;;;0.70;0.70;;;;;;;10.89;100.00;97336.50;5006369;28;20042;-69
2024/01/18 02:43:33;;;;;;;0.70;0.70;;;;;;;11.12;100.00;97378.16;5007670;28;20026;-70
2024/01/18 02:45:58;;;;;;;0.70;0.70;;;;;;;11.09;100.00;97378.34;5007370;28;20570;-69
2024/01/18 02:48:24;;;;;;;0.70;0.70;;;;;;;10.95;100.00;97344.84;5005991;28;20087;-70
2024/01/18 02:50:50;;;;;;;0.60;0.60;;;;;;;11.07;100.00;97375.00;5006902;28;20032;-70
2024/01/18 02:53:15;;;;;;;0.60;0.60;;;;;;;11.04;100.00;97380.53;5007364;28;20591;-70
2024/01/18 02:55:41;;;;;;;0.70;0.70;;;;;;;10.88;100.00;97356.06;4988519;28;21155;-70
2024/01/18 02:58:06;;;;;;;0.60;0.60;;;;;;;10.87;100.00;97352.56;5008392;28;20077;-69
2024/01/18 03:00:31;;;;;;;0.70;0.70;;;;;;;11.06;100.00;97383.91;5009094;28;20377;-69
2024/01/18 03:02:57;;;;;;;0.60;0.60;;;;;;;11.03;100.00;97386.81;5008553;28;20026;-69
2024/01/18 03:05:22;;;;;;;0.65;0.65;;;;;;;10.99;100.00;97404.00;5006931;28;20046;-70
2024/01/18 03:07:48;;;;;;;0.70;0.70;;;;;;;10.72;100.00;97403.38;5008345;28;20091;-69
2024/01/18 03:10:13;;;;;;;0.70;0.70;;;;;;;9.92;100.00;97372.97;5008576;28;20041;-69
2024/01/18 03:12:39;;;;;;;0.80;0.80;;;;;;;9.37;100.00;97375.19;5008429;28;20030;-73
2024/01/18 03:15:08;;;;;;;0.70;0.70;;;;;;;8.96;100.00;97380.66;5007918;28;20438;-72
2024/01/18 03:17:33;;;;;;;0.70;0.70;;;;;;;8.79;100.00;97412.78;5008394;28;20053;-72
2024/01/18 03:19:59;;;;;;;0.70;0.70;;;;;;;8.28;100.00;97379.13;4990360;28;20120;-72
2024/01/18 03:22:24;;;;;;;0.70;0.70;;;;;;;7.97;100.00;97385.50;5008311;28;20050;-72
2024/01/18 03:24:50;;;;;;;0.70;0.70;;;;;;;7.93;100.00;97426.38;5007317;28;20116;-72
2024/01/18 03:27:17;;;;;;;0.70;0.70;;;;;;;7.50;100.00;97424.69;5007612;28;20041;-71
2024/01/18 03:29:42;;;;;;;0.90;0.90;;;;;;;7.28;100.00;97412.88;5007103;28;20033;-71
2024/01/18 03:32:08;;;;;;;0.80;0.80;;;;;;;7.00;100.00;97418.97;5007296;28;20518;-72
2024/01/18 03:34:33;;;;;;;0.90;0.90;;;;;;;6.57;100.00;97367.81;5006242;28;20424;-71
2024/01/18 03:36:59;;;;;;;0.80;0.80;;;;;;;6.85;100.00;97419.03;4987293;28;20026;-71
2024/01/18 03:39:24;;;;;;;0.70;0.70;;;;;;;6.67;100.00;97408.59;5006501;28;20113;-71
2024/01/18 03:41:49;;;;;;;0.90;0.90;;;;;;;6.58;100.00;97398.59;5005885;28;20534;-71
2024/01/18 03:44:15;;;;;;;0.90;0.90;;;;;;;6.47;100.00;97413.34;5005471;28;20057;-71
2024/01/18 03:46:40;;;;;;;0.93;0.93;;;;;;;6.34;100.00;97402.63;4989082;28;20030;-72
2024/01/18 03:49:06;;;;;;;0.82;0.82;;;;;;;6.20;100.00;97414.91;5006954;28;20022;-71
2024/01/18 03:51:31;;;;;;;0.80;0.80;;;;;;;6.15;100.00;97416.97;4989844;28;20599;-72
2024/01/18 03:53:56;;;;;;;0.82;0.82;;;;;;;6.08;100.00;97420.91;5007518;28;20038;-71
2024/01/18 03:56:22;;;;;;;1.00;1.00;;;;;;;5.93;100.00;97411.19;5006904;28;20034;-71
2024/01/18 03:58:47;;;;;;;0.85;0.85;;;;;;;5.97;100.00;97410.06;5008743;28;20026;-72
2024/01/18 04:01:13;;;;;;;0.98;0.98;;;;;;;5.73;100.00;97371.84;5007927;28;20037;-72
2024/01/18 04:03:39;;;;;;;0.90;0.90;;;;;;;5.66;100.00;97375.75;4989755;28;20141;-72
2024/01/18 04:06:05;;;;;;;0.90;0.90;;;;;;;5.87;100.00;97415.03;5007045;28;20046;-72
2024/01/18 04:08:30;;;;;;;0.80;0.80;;;;;;;5.83;100.00;97423.19;5008393;28;20041;-72
2024/01/18 04:10:56;;;;;;;0.88;0.88;;;;;;;5.68;100.00;97429.25;5006211;28;20106;-73
2024/01/18 04:13:21;;;;;;;1.00;1.00;;;;;;;5.46;100.00;97397.06;5006959;28;20041;-73
2024/01/18 04:15:47;;;;;;;1.00;1.00;;;;;;;5.66;100.00;97431.13;5005895;28;20030;-74
2024/01/18 04:18:13;;;;;;;1.00;1.00;;;;;;;5.46;100.00;97389.16;5011548;28;20138;-74
2024/01/18 04:20:38;;;;;;;1.00;1.00;;;;;;;5.70;100.00;97435.31;5011859;28;20108;-73
2024/01/18 04:23:04;;;;;;;0.85;0.85;;;;;;;5.47;100.00;97422.53;5011575;28;20025;-74
2024/01/18 04:25:29;;;;;;;0.82;0.82;;;;;;;5.52;100.00;97447.69;5010617;28;20045;-73
2024/01/18 04:27:54;;;;;;;0.90;0.90;;;;;;;5.23;100.00;97401.81;4992603;28;20029;-72
2024/01/18 04:30:20;;;;;;;0.80;0.80;;;;;;;5.32;100.00;97426.84;4992490;28;20069;-73
2024/01/18 04:32:45;;;;;;;0.90;0.90;;;;;;;5.33;100.00;97471.56;5008995;28;20018;-72
2024/01/18 04:35:11;;;;;;;0.95;0.95;;;;;;;5.25;100.00;97468.44;5008470;28;20172;-72
2024/01/18 04:37:36;;;;;;;0.90;0.90;;;;;;;5.20;100.00;97477.53;5006111;28;20394;-72
2024/01/18 04:40:02;;;;;;;1.00;1.00;;;;;;;5.25;100.00;97460.53;5010080;28;20476;-72
2024/01/18 04:42:27;;;;;;;1.00;1.00;;;;;;;5.24;100.00;97453.56;5010117;28;20033;-74
2024/01/18 04:44:53;;;;;;;0.90;0.90;;;;;;;5.09;100.00;97432.44;4993678;28;20030;-71
2024/01/18 04:47:19;;;;;;;0.98;0.98;;;;;;;5.27;100.00;97476.28;5010289;28;20029;-74
2024/01/18 04:49:44;;;;;;;1.10;1.10;;;;;;;5.01;100.00;97434.59;5011326;28;20030;-73
2024/01/18 04:52:10;;;;;;;0.93;0.93;;;;;;;5.20;100.00;97457.31;4993912;28;20148;-73
2024/01/18 04:54:35;;;;;;;1.00;1.00;;;;;;;5.14;100.00;97454.97;4993167;28;20119;-75
2024/01/18 04:57:01;;;;;;;0.90;0.90;;;;;;;5.08;100.00;97463.19;5009796;28;20021;-74
2024/01/18 04:59:27;;;;;;;1.10;1.10;;;;;;;4.85;100.00;97439.81;5009577;28;20391;-74
2024/01/18 05:01:53;;;;;;;0.88;0.88;;;;;;;4.86;100.00;97475.75;5009710;28;20054;-73
2024/01/18 05:04:19;;;;;;;1.00;1.00;;;;;;;4.88;100.00;97476.53;5008214;28;20061;-75
2024/01/18 05:06:44;;;;;;;0.82;0.82;;;;;;;4.87;100.00;97477.47;5008609;28;20026;-74
2024/01/18 05:09:10;;;;;;;1.13;1.13;;;;;;;4.82;100.00;97481.25;5007969;28;20033;-73
2024/01/18 05:11:35;;;;;;;0.90;0.90;;;;;;;4.75;100.00;97483.34;4994696;28;20044;-74
2024/01/18 05:14:01;;;;;;;0.98;0.98;;;;;;;4.39;100.00;97435.16;4988295;28;20464;-76
2024/01/18 05:16:26;;;;;;;0.90;0.90;;;;;;;4.64;100.00;97487.44;4999406;28;20025;-75
2024/01/18 05:18:52;;;;;;;1.00;1.00;;;;;;;4.31;100.00;97447.84;5007794;28;20088;-73
2024/01/18 05:21:17;;;;;;;0.90;0.90;;;;;;;4.33;100.00;97440.72;5009396;28;20550;-72
2024/01/18 05:23:43;;;;;;;0.90;0.90;;;;;;;4.40;100.00;97438.66;5008923;28;20088;-72
2024/01/18 05:26:09;;;;;;;1.00;1.00;;;;;;;4.59;100.00;97471.00;5007494;28;20068;-73
2024/01/18 05:28:35;;;;;;;1.00;1.00;;;;;;;4.56;100.00;97469.41;5006596;28;20036;-73
2024/01/18 05:31:01;;;;;;;1.10;1.10;;;;;;;4.40;100.00;97452.63;4989511;28;20052;-73
2024/01/18 05:33:27;;;;;;;1.00;1.00;;;;;;;4.48;100.00;97471.53;4991261;28;20427;-74
2024/01/18 05:35:53;;;;;;;1.20;1.20;;;;;;;4.33;100.00;97461.78;4976370;28;20078;-73
2024/01/18 05:38:19;;;;;;;0.90;0.90;;;;;;;4.27;100.00;97472.56;5008879;28;20515;-74
2024/01/18 05:40:45;;;;;;;0.90;0.90;;;;;;;3.98;100.00;97444.19;5008439;28;20037;-78
2024/01/18 05:43:10;;;;;;;1.10;1.10;;;;;;;3.94;100.00;97459.25;5009248;28;20037;-80
2024/01/18 05:45:36;;;;;;;1.20;1.20;;;;;;;4.11;100.00;97494.41;5008755;28;20026;-77
2024/01/18 05:48:01;;;;;;;1.02;1.02;;;;;;;4.09;100.00;97499.75;4990311;28;20038;-77
2024/01/18 05:50:27;;;;;;;1.00;1.00;;;;;;;4.07;100.00;97491.06;5008724;28;20068;-76
2024/01/18 05:52:53;;;;;;;1.05;1.05;;;;;;;3.84;100.00;97446.59;5007948;28;20374;-70
2024/01/18 05:55:18;;;;;;;1.20;1.20;;;;;;;3.97;100.00;97460.88;5006645;28;20058;-77
2024/01/18 05:57:44;;;;;;;1.05;1.05;;;;;;;3.95;100.00;97476.72;4988537;28;20473;-78
2024/01/18 06:00:10;;;;;;;1.00;1.00;;;;;;;3.99;100.00;97466.91;5007984;28;20030;-76
2024/01/18 06:02:36;;;;;;;1.10;1.10;;;;;;;4.02;100.00;97464.16;5008067;28;20057;-79
2024/01/18 06:05:01;;;;;;;1.10;1.10;;;;;;;3.83;100.00;97435.25;5009515;28;20087;-78
2024/01/18 06:07:27;;;;;;;1.10;1.10;;;;;;;4.03;100.00;97471.13;5008354;28;20541;-76
2024/01/18 06:09:52;;;;;;;1.08;1.08;;;;;;;3.99;100.00;97457.25;4990656;28;20072;-72
2024/01/18 06:12:19;;;;;;;1.00;1.00;;;;;;;3.97;100.00;97445.09;5010126;28;20026;-79
2024/01/18 06:14:45;;;;;;;1.10;1.10;;;;;;;3.88;100.00;97449.03;4991387;28;20030;-75
2024/01/18 06:17:10;;;;;;;1.20;1.20;;;;;;;3.93;100.00;97448.81;5001633;28;20479;-78
2024/01/18 06:19:36;;;;;;;1.20;1.20;;;;;;;3.68;100.00;97424.59;4997859;28;20714;-78
2024/01/18 06:22:01;;;;;;;1.10;1.10;;;;;;;3.79;100.00;97438.94;4996607;28;20017;-77
2024/01/18 06:24:28;;;;;;;1.20;1.20;;;;;;;3.92;100.00;97465.53;4997786;28;20109;-76
2024/01/18 06:26:54;;;;;;;1.10;1.10;;;;;;;3.69;100.00;97442.91;5006912;28;20083;-75
2024/01/18 06:29:21;;;;;;;1.20;1.20;;;;;;;3.93;100.00;97480.38;5005089;28;20036;-77
2024/01/18 06:31:47;;;;;;;1.00;1.00;;;;;;;3.68;100.00;97441.22;4992097;28;20036;-75
2024/01/18 06:34:12;;;;;;;1.20;1.20;;;;;;;3.89;100.00;97479.66;4995409;28;20046;-76
2024/01/18 06:36:38;;;;;;;1.10;1.10;;;;;;;3.84;100.00;97472.88;5004276;28;20108;-74
2024/01/18 06:39:03;;;;;;;1.10;1.10;;;;;;;3.65;100.00;97461.53;4983724;28;20160;-74
2024/01/18 06:41:30;;;;;;;1.00;1.00;;;;;;;3.83;100.00;97465.94;4998326;28;20036;-73
2024/01/18 06:43:55;;;;;;;1.08;1.08;;;;;;;3.78;100.00;97488.97;4989043;28;20029;-71
2024/01/18 06:46:22;;;;;;;1.00;1.00;;;;;;;3.50;100.00;97452.59;4977733;28;20093;-71
2024/01/18 06:48:53;;;;;;;1.05;1.05;;;;;;;3.37;100.00;97447.94;4992384;28;20029;-70
2024/01/18 06:51:20;;;;;;;1.20;1.20;;;;;;;3.58;100.00;97475.88;4986947;28;20356;-70
2024/01/18 06:53:46;;;;;;;1.15;1.15;;;;;;;3.52;100.00;97476.16;5004475;28;20026;-70
2024/01/18 06:56:12;;;;;;;1.20;1.20;;;;;;;3.21;100.00;97457.44;4987217;28;20033;-72
2024/01/18 06:58:38;;;;;;;1.10;1.10;;;;;;;3.38;100.00;97492.53;4987846;28;20080;-69
2024/01/18 07:01:03;;;;;;;1.25;1.25;;;;;;;3.47;100.00;97493.91;5006962;28;20042;-69
2024/01/18 07:03:31;;;;;;;1.25;1.25;;;;;;;3.52;100.00;97497.19;4991193;28;20025;-68
2024/01/18 07:05:57;;;;;;;1.20;1.20;;;;;;;3.39;100.00;97456.63;5007725;28;20046;-69
2024/01/18 07:08:24;;;;;;;1.10;1.10;;;;;;;3.43;100.00;97476.56;5004421;28;20030;-69
2024/01/18 07:10:49;;;;;;;1.10;1.10;;;;;;;3.58;100.00;97512.66;5007875;28;20395;-69
2024/01/18 07:13:15;;;;;;;1.10;1.10;;;;;;;3.38;100.00;97476.78;4989339;28;20022;-68
2024/01/18 07:15:40;;;;;;;1.10;1.10;;;;;;;3.42;100.00;97480.13;5005535;28;20201;-68
2024/01/18 07:18:06;;;;;;;1.10;1.10;;;;;;;3.42;100.00;97491.50;4971543;28;20486;-69
2024/01/18 07:20:31;;;;;;;0.95;0.95;;;;;;;3.40;100.00;97495.09;4999970;28;20029;-69
2024/01/18 07:22:57;;;;;;;1.20;1.20;;;;;;;3.28;100.00;97474.63;4991154;28;20488;-68
2024/01/18 07:25:22;;;;;;;1.20;1.20;;;;;;;3.33;100.00;97485.75;4994653;28;20026;-69
2024/01/18 07:27:48;;;;;;;1.20;1.20;;;;;;;3.36;100.00;97511.94;5007978;28;20041;-68
2024/01/18 07:30:14;;;;;;;1.20;1.20;;;;;;;3.33;100.00;97512.03;5008840;28;20036;-69
2024/01/18 07:32:40;;;;;;;1.10;1.10;;;;;;;3.10;100.00;97483.31;5009045;28;20025;-69
2024/01/18 07:35:06;;;;;;;1.20;1.20;;;;;;;3.22;100.00;97537.91;5007993;28;20038;-69
2024/01/18 07:37:31;;;;;;;1.30;1.30;;;;;;;3.16;100.00;97525.94;4987828;28;20029;-70
2024/01/18 07:39:57;;;;;;;1.20;1.20;;;;;;;3.21;100.00;97530.97;5006016;28;20387;-69
2024/01/18 07:42:22;;;;;;;1.10;1.10;;;;;;;3.10;100.00;97509.59;5005228;28;20022;-70
2024/01/18 07:44:48;;;;;;;1.17;1.17;;;;;;;3.17;100.00;97538.13;5006116;28;20454;-69
2024/01/18 07:47:13;;;;;;;1.20;1.20;;;;;;;3.03;100.00;97513.38;5004123;28;20030;-71
2024/01/18 07:49:45;;;;;;;1.02;1.02;;;;;;;3.30;100.00;97570.81;5005438;28;20038;-69
2024/01/18 07:52:14;;;;;;;1.30;1.30;;;;;;;3.31;100.00;97566.44;5008140;28;20030;-71
2024/01/18 07:54:39;;;;;;;1.30;1.30;;;;;;;3.03;100.00;97513.38;5010698;28;20926;-71
2024/01/18 07:57:05;;;;;;;1.20;1.20;;;;;;;3.28;100.00;97553.44;4989892;28;20065;-71
2024/01/18 07:59:30;;;;;;;1.20;1.20;;;;;;;3.17;100.00;97546.00;4992677;28;20242;-73
2024/01/18 08:01:56;;;;;;;1.30;1.30;;;;;;;3.29;100.00;97569.13;5002792;28;20021;-73
2024/01/18 08:04:22;;;;;;;1.10;1.10;;;;;;;3.04;100.00;97522.94;5010519;28;20582;-72
2024/01/18 08:06:48;;;;;;;1.20;1.20;;;;;;;3.26;100.00;97568.41;5004271;28;20464;-72
2024/01/18 08:09:13;;;;;;;1.10;1.10;;;;;;;3.11;100.00;97548.03;5006453;28;20041;-72
2024/01/18 08:11:39;;;;;;;1.08;1.08;;;;;;;3.07;100.00;97567.44;5022974;28;20033;-72
2024/01/18 08:14:04;;;;;;;1.10;1.10;;;;;;;3.13;100.00;97572.47;4998027;28;20084;-73
2024/01/18 08:16:29;;;;;;;1.10;1.10;;;;;;;2.91;100.00;97546.25;5013429;28;20034;-72
2024/01/18 08:18:55;;;;;;;1.00;1.00;;;;;;;3.12;100.00;97578.63;5010925;28;20447;-72
2024/01/18 08:21:21;;;;;;;1.25;1.25;;;;;;;2.99;100.00;97586.16;5013207;28;20411;-72
2024/01/18 08:23:47;;;;;;;1.20;1.20;;;;;;;2.91;100.00;97587.38;5023870;28;20037;-72
2024/01/18 08:26:15;;;;;;;1.20;1.20;;;;;;;2.98;100.00;97615.13;4996704;28;20514;-73
2024/01/18 08:28:40;;;;;;;1.20;1.20;;;;;;;2.82;100.00;97603.53;5009830;28;20096;-73
2024/01/18 08:31:06;;;;;;;1.20;1.20;;;;;;;3.05;100.00;97627.91;5007574;28;20125;-72
2024/01/18 08:33:32;;;;;;;1.10;1.10;;;;;;;3.05;100.00;97622.66;5005422;28;20033;-72
2024/01/18 08:35:58;;;;;;;1.13;1.13;;;;;;;3.02;100.00;97629.81;5005700;28;20140;-72
2024/01/18 08:38:23;;;;;;;1.13;1.13;;;;;;;3.07;100.00;97625.22;5011272;28;20464;-71
2024/01/18 08:40:49;;;;;;;1.23;1.23;;;;;;;2.76;100.00;97609.00;5005214;28;20494;-71
2024/01/18 08:43:15;;;;;;;1.40;1.40;;;;;;;2.95;100.00;97652.81;4998033;28;20022;-71
2024/01/18 08:45:41;;;;;;;1.20;1.20;;;;;;;3.02;100.00;97658.69;4987523;28;20064;-71
2024/01/18 08:48:07;;;;;;;1.20;1.20;;;;;;;2.98;100.00;97667.63;4993972;28;20070;-71
2024/01/18 08:50:33;;;;;;;1.25;1.25;;;;;;;2.98;100.00;97673.72;4990883;28;20038;-72
2024/01/18 08:52:58;;;;;;;1.20;1.20;;;;;;;2.98;100.00;97665.00;5009136;28;20022;-72
2024/01/18 08:55:24;;;;;;;1.30;1.30;;;;;;;3.05;100.00;97675.19;4990695;28;20034;-72
2024/01/18 08:57:49;;;;;;;1.40;1.40;;;;;;;3.01;100.00;97688.50;5013261;28;20487;-72
2024/01/18 09:00:17;;;;;;;1.20;1.20;;;;;;;3.07;100.00;97693.50;5002132;28;20112;-72
2024/01/18 09:02:45;;;;;;;1.20;1.20;;;;;;;2.98;100.00;97693.88;5014505;28;20120;-72
2024/01/18 09:05:11;;;;;;;1.30;1.30;;;;;;;3.01;100.00;97717.38;5016885;28;20056;-72
2024/01/18 09:07:36;;;;;;;1.30;1.30;;;;;;;2.52;100.00;97643.16;4983755;28;20042;-72
2024/01/18 09:10:03;;;;;;;1.33;1.33;;;;;;;2.89;100.00;97728.34;5007568;28;20041;-72
2024/01/18 09:12:29;;;;;;;1.40;1.40;;;;;;;2.88;100.00;97748.50;5006927;28;20053;-72
2024/01/18 09:14:54;;;;;;;1.20;1.20;;;;;;;2.84;100.00;97756.53;5009554;28;20552;-72
2024/01/18 09:17:20;;;;;;;1.25;1.25;;;;;;;2.40;100.00;97711.84;5008550;28;20076;-72
2024/01/18 09:19:46;;;;;;;1.35;1.35;;;;;;;2.76;100.00;97787.47;4993866;28;20021;-73
2024/01/18 09:22:11;;;;;;;1.33;1.33;;;;;;;2.56;100.00;97760.22;5011283;28;20102;-73
2024/01/18 09:24:37;;;;;;;1.30;1.30;;;;;;;2.57;100.00;97764.53;5014472;28;20480;-74
2024/01/18 09:27:03;;;;;;;1.30;1.30;;;;;;;2.81;100.00;97810.03;5011998;28;20555;-75
2024/01/18 09:29:28;;;;;;;1.27;1.27;;;;;;;2.68;100.00;97801.72;4993776;28;20069;-74
2024/01/18 09:31:53;;;;;;;1.30;1.30;;;;;;;2.70;100.00;97810.41;5019107;28;20049;-75
2024/01/18 09:34:19;;;;;;;1.40;1.40;;;;;;;2.72;100.00;97820.00;4999394;28;20758;-74
2024/01/18 09:36:44;;;;;;;1.23;1.23;;;;;;;2.75;100.00;97833.03;5005457;28;20030;-73
2024/01/18 09:39:15;;;;;;;1.30;1.30;;;;;;;2.60;100.00;97792.44;5007951;28;20299;-74
2024/01/18 09:41:42;;;;;;;1.10;1.10;;;;;;;2.64;100.00;97796.66;5017845;28;20250;-74
2024/01/18 09:44:11;;;;;;;1.13;1.13;;;;;;;2.93;100.00;97821.84;5005666;28;20040;-73
2024/01/18 09:46:38;;;;;;;1.20;1.20;;;;;;;2.87;100.00;97825.53;5004960;28;20042;-73
2024/01/18 09:49:07;;;;;;;1.30;1.30;;;;;;;2.86;100.00;97850.09;4987834;28;20085;-73
2024/01/18 09:51:32;;;;;;;1.20;1.20;;;;;;;2.56;100.00;97828.44;4997406;28;20026;-73
2024/01/18 09:53:57;;;;;;;1.30;1.30;;;;;;;2.53;100.00;97843.44;5004223;28;20041;-76
2024/01/18 09:56:28;;;;;;;1.20;1.20;;;;;;;2.43;100.00;97829.78;5011601;28;20034;-73
2024/01/18 09:58:54;;;;;;;1.25;1.25;;;;;;;2.44;100.00;97839.34;4990708;28;20618;-75
2024/01/18 10:01:21;;;;;;;1.23;1.23;;;;;;;2.27;100.00;97835.63;5007338;28;20435;-76
2024/01/18 10:03:51;;;;;;;1.27;1.27;;;;;;;2.72;100.00;97900.44;4990673;28;20113;-75
2024/01/18 10:06:18;;;;;;;1.20;1.20;;;;;;;2.73;100.00;97902.16;4990035;28;20397;-76
2024/01/18 10:08:48;;;;;;;1.25;1.25;;;;;;;2.79;100.00;97919.47;4991438;28;20038;-75
2024/01/18 10:11:14;;;;;;;1.30;1.30;;;;;;;2.55;100.00;97876.56;5008570;28;20030;-74
2024/01/18 10:13:56;;;;;;;1.30;1.30;;;;;;;2.78;100.00;97916.91;5007858;28;20035;-70
2024/01/18 10:16:32;;;;;;;1.33;1.33;;;;;;;2.81;100.00;97925.53;4990530;28;20034;-71
2024/01/18 10:19:00;;;;;;;1.27;1.27;;;;;;;2.72;100.00;97931.06;5005823;28;20029;-71
2024/01/18 10:21:26;;;;;;;1.38;1.38;;;;;;;2.76;100.00;97935.31;5009248;28;20026;-70
2024/01/18 10:23:53;;;;;;;1.27;1.27;;;;;;;2.79;100.00;97939.59;4990404;28;20029;-71
2024/01/18 10:26:20;;;;;;;1.30;1.30;;;;;;;2.59;100.00;97914.91;5007874;28;20384;-72
2024/01/18 10:28:46;;;;;;;1.20;1.20;;;;;;;2.83;100.00;97954.34;5007128;28;20038;-72
2024/01/18 10:31:12;;;;;;;1.20;1.20;;;;;;;2.78;100.00;97961.50;5009187;28;20423;-74
2024/01/18 10:33:37;;;;;;;1.20;1.20;;;;;;;2.77;100.00;97965.06;4991629;28;20029;-74
2024/01/18 10:36:02;;;;;;;1.25;1.25;;;;;;;2.66;100.00;97992.53;4990786;28;20060;-73
2024/01/18 10:38:35;;;;;;;1.20;1.20;;;;;;;2.64;100.00;97999.59;4991442;28;20018;-73
2024/01/18 10:41:02;;;;;;;1.30;1.30;;;;;;;2.37;100.00;97955.88;5008580;28;20030;-74
2024/01/18 10:43:32;;;;;;;1.38;1.38;;;;;;;2.27;100.00;97935.28;4991470;28;20510;-73
2024/01/18 10:45:58;;;;;;;1.20;1.20;;;;;;;2.81;100.00;97992.91;5008709;28;20030;-72
2024/01/18 10:48:25;;;;;;;1.20;1.20;;;;;;;2.76;100.00;98013.19;4990641;28;20029;-72
2024/01/18 10:50:56;;;;;;;1.30;1.30;;;;;;;2.63;100.00;98039.88;5007237;28;20043;-72
2024/01/18 10:53:24;;;;;;;1.30;1.30;;;;;;;2.42;100.00;98003.81;5009703;28;20113;-72
2024/01/18 10:55:51;;;;;;;1.25;1.25;;;;;;;2.69;100.00;98031.78;5008502;28;20029;-72
2024/01/18 10:58:17;;;;;;;1.20;1.20;;;;;;;2.41;100.00;98006.47;4991325;28;20017;-72
2024/01/18 11:00:42;;;;;;;1.25;1.25;;;;;;;2.57;100.00;98045.28;5005362;28;20436;-72
2024/01/18 11:03:08;;;;;;;1.38;1.38;;;;;;;2.62;100.00;98061.75;5008774;28;20128;-72
2024/01/18 11:05:34;;;;;;;1.30;1.30;;;;;;;2.44;100.00;98028.22;5007871;28;20130;-72
2024/01/18 11:08:00;;;;;;;1.30;1.30;;;;;;;2.43;100.00;98039.66;5007507;28;20101;-72
2024/01/18 11:10:25;;;;;;;1.30;1.30;;;;;;;2.66;100.00;98080.88;5005984;28;20528;-71
2024/01/18 11:12:52;;;;;;;1.30;1.30;;;;;;;2.41;100.00;98049.31;5007480;28;20040;-72
2024/01/18 11:15:19;;;;;;;1.40;1.40;;;;;;;2.44;100.00;98048.34;4989895;28;20026;-71
2024/01/18 11:17:54;;;;;;;1.30;1.30;;;;;;;2.77;100.00;98099.75;5007208;28;20041;-72
2024/01/18 11:20:21;;;;;;;1.30;1.30;;;;;;;2.74;100.00;98097.25;5005521;28;20444;-72
2024/01/18 11:22:46;;;;;;;1.30;1.30;;;;;;;2.78;100.00;98117.25;4995464;28;20708;-69
2024/01/18 11:25:17;;;;;;;1.27;1.27;;;;;;;2.65;100.00;98076.56;5008732;28;20116;-69